Darstellungsparameter: Aktuell verwendete Einstellungen:
Skalierung der Graphiken ... ?
xyx+y,   Skalierungsfaktor:      Skalierung: Modus: x, Faktor: 1
Darstellungszeitraum ... ?
Vom - - bis: - -   Zeitraum: 25.04.2015 - 25.04.2015
Min/Max/Avg-Anzeige ... ?
Zeige MMA aktuell
Zeige MMA Monat
Zeige MMA alles
Zeige --A aktuell
Zeige --A Monat
Zeige --A alles
Keine MMA-Anzeige
MMA:
Average (ber die Originaldaten)
MMA-Basis: 25.04.2015 - 25.04.2015
Quicknavigation für Darstellung... ?
Tage:      1T, 2T, 3T, 5T -1T -2T -3T -5T +1T +2T +3T +5T
Wochen: 1W, 2W, 3W -1W -2W -3W +1W +2W +3W
Monate: 1M, 3M, 6M -1M -3M -6M +1M +3M +6M
Jahre:    1J, 3J, 5J, 10J -1J -3J -5J -10J +1J +3J +5J +10J
Nutze für die Darstellung ... ?
Originaldaten oder Mittelwerte auf ...
Stundenbasis Tagesbasis Wochenbasis
Monatsbasis Jahresbasis      Datenbasis: Original-Daten
Darstellen als:
Statistik (Auto) Statistik J:M      Darstellung:
Zur Graphik,    zurück zur Übersicht aller Sensoren.
 
Tabellarische Datenbersicht: ?
 
Sensor: Nr:Datum:Temp:Abs-Feuchte:Windchill:Wind:
Aussen-T/F 1 25-04-2015 00:00:00 11 C 6.81 g/m*3 11 C 0 km/h
2 25-04-2015 00:05:00 10.9 C 6.86 g/m*3 10.9 C 0 km/h
3 25-04-2015 00:10:00 10.8 C 6.72 g/m*3 10.8 C 0 km/h
4 25-04-2015 00:15:00 10.8 C 6.72 g/m*3 10.8 C 0 km/h
5 25-04-2015 00:20:00 10.8 C 6.82 g/m*3 10.8 C 0 km/h
6 25-04-2015 00:25:00 10.8 C 6.82 g/m*3 10.8 C 0 km/h
7 25-04-2015 00:30:00 10.7 C 6.97 g/m*3 10.7 C 0 km/h
8 25-04-2015 00:35:00 10.7 C 6.88 g/m*3 10.7 C 0 km/h
9 25-04-2015 00:40:00 10.7 C 6.88 g/m*3 10.7 C 0 km/h
10 25-04-2015 00:45:00 10.6 C 6.73 g/m*3 10.6 C 0 km/h
11 25-04-2015 00:50:00 10.6 C 6.83 g/m*3 10.6 C 0 km/h
12 25-04-2015 00:55:00 10.5 C 6.89 g/m*3 10.5 C 0 km/h
13 25-04-2015 01:00:00 10.4 C 6.84 g/m*3 10.4 C 0 km/h
14 25-04-2015 01:05:00 10.3 C 6.9 g/m*3 10.3 C 1.6 km/h
15 25-04-2015 01:10:00 10.3 C 6.9 g/m*3 10.3 C 1.6 km/h
16 25-04-2015 01:15:00 10.3 C 6.9 g/m*3 10.3 C 0 km/h
17 25-04-2015 01:20:00 10.2 C 6.95 g/m*3 10.2 C 0 km/h
18 25-04-2015 01:25:00 10.1 C 6.9 g/m*3 10.1 C 0 km/h
19 25-04-2015 01:30:00 9.9 C 6.91 g/m*3 9.9 C 0 km/h
20 25-04-2015 01:35:00 9.9 C 6.91 g/m*3 9.9 C 1.6 km/h
21 25-04-2015 01:40:00 9.8 C 6.96 g/m*3 9.8 C 1.6 km/h
22 25-04-2015 01:45:00 9.8 C 6.96 g/m*3 9.8 C 0 km/h
23 25-04-2015 01:50:00 9.7 C 7.01 g/m*3 9.7 C 0 km/h
24 25-04-2015 01:55:00 9.6 C 7.05 g/m*3 9.6 C 0 km/h
25 25-04-2015 02:00:00 9.5 C 6.92 g/m*3 9.5 C 0 km/h
Sensor: Nr:Datum:Temp:Abs-Feuchte:Windchill:Wind:
Aussen-T/F 26 25-04-2015 02:05:00 9.4 C 6.87 g/m*3 9.4 C 0 km/h
27 25-04-2015 02:10:00 9.4 C 6.96 g/m*3 9.4 C 0 km/h
28 25-04-2015 02:15:00 9.3 C 6.92 g/m*3 9.3 C 0 km/h
29 25-04-2015 02:20:00 9.3 C 7.01 g/m*3 9.3 C 0 km/h
30 25-04-2015 02:25:00 9.2 C 6.97 g/m*3 9.2 C 0 km/h
31 25-04-2015 02:30:00 9.2 C 7.05 g/m*3 9.2 C 0 km/h
32 25-04-2015 02:35:00 9.2 C 7.05 g/m*3 9.2 C 0 km/h
33 25-04-2015 02:40:00 9.1 C 7.01 g/m*3 9.1 C 0 km/h
34 25-04-2015 02:45:00 9.2 C 7.05 g/m*3 9.2 C 0 km/h
35 25-04-2015 02:50:00 9.2 C 7.14 g/m*3 9.2 C 0 km/h
36 25-04-2015 02:55:00 9.2 C 7.14 g/m*3 9.2 C 0 km/h
37 25-04-2015 03:00:00 9.2 C 7.14 g/m*3 9.2 C 0 km/h
38 25-04-2015 03:05:00 9.2 C 7.14 g/m*3 9.2 C 0 km/h
39 25-04-2015 03:10:00 9.3 C 7.19 g/m*3 9.3 C 0 km/h
40 25-04-2015 03:15:00 9.3 C 7.28 g/m*3 9.3 C 0 km/h
41 25-04-2015 03:20:00 9.3 C 7.19 g/m*3 9.3 C 0 km/h
42 25-04-2015 03:25:00 9.3 C 7.28 g/m*3 9.3 C 0 km/h
43 25-04-2015 03:30:00 9.3 C 7.28 g/m*3 9.3 C 0 km/h
44 25-04-2015 03:35:00 9.3 C 7.19 g/m*3 9.3 C 1.6 km/h
45 25-04-2015 03:40:00 9.3 C 7.19 g/m*3 9.3 C 1.6 km/h
46 25-04-2015 03:45:00 9.4 C 7.15 g/m*3 9.4 C 0 km/h
47 25-04-2015 03:50:00 9.4 C 7.24 g/m*3 9.4 C 0 km/h
48 25-04-2015 03:55:00 9.4 C 7.24 g/m*3 9.4 C 0 km/h
49 25-04-2015 04:00:00 9.4 C 7.33 g/m*3 9.4 C 0 km/h
50 25-04-2015 04:05:00 9.4 C 7.42 g/m*3 9.4 C 0 km/h
Sensor: Nr:Datum:Temp:Abs-Feuchte:Windchill:Wind:
Aussen-T/F 51 25-04-2015 04:10:00 9.3 C 7.37 g/m*3 9.3 C 0 km/h
52 25-04-2015 04:15:00 9.3 C 7.28 g/m*3 9.3 C 0 km/h
53 25-04-2015 04:20:00 9.3 C 7.28 g/m*3 9.3 C 0 km/h
54 25-04-2015 04:25:00 9.3 C 7.37 g/m*3 9.3 C 0 km/h
55 25-04-2015 04:30:00 9.2 C 7.32 g/m*3 9.2 C 1.6 km/h
56 25-04-2015 04:35:00 9.3 C 7.37 g/m*3 9.3 C 1.6 km/h
57 25-04-2015 04:40:00 9.3 C 7.37 g/m*3 9.3 C 0 km/h
58 25-04-2015 04:45:00 9.3 C 7.37 g/m*3 9.3 C 0 km/h
59 25-04-2015 04:50:00 9.3 C 7.37 g/m*3 9.3 C 0 km/h
60 25-04-2015 04:55:00 9.3 C 7.37 g/m*3 9.3 C 0 km/h
61 25-04-2015 05:00:00 9.3 C 7.46 g/m*3 9.3 C 0 km/h
62 25-04-2015 05:05:00 9.3 C 7.46 g/m*3 9.3 C 0 km/h
63 25-04-2015 05:10:00 9.3 C 7.46 g/m*3 9.3 C 0 km/h
64 25-04-2015 05:15:00 9.3 C 7.55 g/m*3 9.3 C 0 km/h
65 25-04-2015 05:20:00 9.3 C 7.55 g/m*3 9.3 C 0 km/h
66 25-04-2015 05:25:00 9.3 C 7.55 g/m*3 9.3 C 0 km/h
67 25-04-2015 05:30:00 9.3 C 7.55 g/m*3 9.3 C 0 km/h
68 25-04-2015 05:35:00 9.3 C 7.55 g/m*3 9.3 C 0 km/h
69 25-04-2015 05:40:00 9.3 C 7.55 g/m*3 9.3 C 0 km/h
70 25-04-2015 05:45:00 9.3 C 7.55 g/m*3 9.3 C 0 km/h
71 25-04-2015 05:50:00 9.2 C 7.59 g/m*3 9.2 C 0 km/h
72 25-04-2015 05:55:00 9.2 C 7.59 g/m*3 9.2 C 0 km/h
73 25-04-2015 06:00:00 9.2 C 7.59 g/m*3 9.2 C 0 km/h
74 25-04-2015 06:05:00 9.2 C 7.59 g/m*3 9.2 C 0 km/h
75 25-04-2015 06:10:00 9.2 C 7.59 g/m*3 9.2 C 0 km/h
Sensor: Nr:Datum:Temp:Abs-Feuchte:Windchill:Wind:
Aussen-T/F 76 25-04-2015 06:15:00 9.2 C 7.59 g/m*3 9.2 C 0 km/h
77 25-04-2015 06:20:00 9.3 C 7.64 g/m*3 9.3 C 0 km/h
78 25-04-2015 06:25:00 9.3 C 7.73 g/m*3 9.3 C 0 km/h
79 25-04-2015 06:30:00 9.4 C 7.78 g/m*3 9.4 C 0 km/h
80 25-04-2015 06:35:00 9.4 C 7.69 g/m*3 9.4 C 0 km/h
81 25-04-2015 06:40:00 9.5 C 7.74 g/m*3 9.5 C 0 km/h
82 25-04-2015 06:45:00 9.6 C 7.79 g/m*3 9.6 C 0 km/h
83 25-04-2015 06:50:00 9.7 C 7.84 g/m*3 9.7 C 0 km/h
84 25-04-2015 06:55:00 9.7 C 7.84 g/m*3 9.7 C 0 km/h
85 25-04-2015 07:00:00 9.8 C 7.89 g/m*3 9.8 C 0 km/h
86 25-04-2015 07:05:00 9.9 C 7.84 g/m*3 9.9 C 0 km/h
87 25-04-2015 07:10:00 9.9 C 7.75 g/m*3 9.9 C 0 km/h
88 25-04-2015 07:15:00 10.1 C 7.75 g/m*3 10.1 C 1.6 km/h
89 25-04-2015 07:20:00 10.1 C 7.75 g/m*3 10.1 C 0 km/h
90 25-04-2015 07:25:00 10.2 C 7.9 g/m*3 10.2 C 0 km/h
91 25-04-2015 07:30:00 10.3 C 7.95 g/m*3 10.3 C 0 km/h
92 25-04-2015 07:35:00 10.3 C 8.04 g/m*3 10.3 C 0 km/h
93 25-04-2015 07:40:00 10.4 C 8.1 g/m*3 10.4 C 0 km/h
94 25-04-2015 07:45:00 10.4 C 8.1 g/m*3 10.4 C 0 km/h
95 25-04-2015 07:50:00 10.6 C 8.2 g/m*3 10.6 C 0 km/h
96 25-04-2015 07:55:00 10.6 C 8.2 g/m*3 10.6 C 1.6 km/h
97 25-04-2015 08:00:00 10.7 C 8.25 g/m*3 10.7 C 0 km/h
98 25-04-2015 08:05:00 10.8 C 8.3 g/m*3 10.8 C 1.6 km/h
99 25-04-2015 08:10:00 10.8 C 8.3 g/m*3 10.8 C 0 km/h
100 25-04-2015 08:15:00 10.8 C 8.3 g/m*3 10.8 C 0 km/h
Sensor: Nr:Datum:Temp:Abs-Feuchte:Windchill:Wind:
Aussen-T/F 101 25-04-2015 08:20:00 10.8 C 8.3 g/m*3 10.8 C 0 km/h
102 25-04-2015 08:25:00 10.9 C 8.45 g/m*3 10.9 C 0 km/h
103 25-04-2015 08:30:00 10.9 C 8.55 g/m*3 10.9 C 0 km/h
104 25-04-2015 08:35:00 11.1 C 8.66 g/m*3 11.1 C 0 km/h
105 25-04-2015 08:40:00 11.2 C 8.82 g/m*3 11.2 C 0 km/h
106 25-04-2015 08:45:00 11.2 C 8.62 g/m*3 11.2 C 0 km/h
107 25-04-2015 08:50:00 11.3 C 8.77 g/m*3 11.3 C 0 km/h
108 25-04-2015 08:55:00 11.4 C 8.93 g/m*3 11.4 C 0 km/h
109 25-04-2015 09:00:00 11.5 C 8.99 g/m*3 11.5 C 0 km/h
110 25-04-2015 09:05:00 11.6 C 9.04 g/m*3 11.6 C 1.6 km/h
111 25-04-2015 09:10:00 11.6 C 8.94 g/m*3 11.6 C 0 km/h
112 25-04-2015 09:15:00 11.7 C 8.99 g/m*3 11.7 C 0 km/h
113 25-04-2015 09:20:00 11.8 C 9.16 g/m*3 11.8 C 0 km/h
114 25-04-2015 09:25:00 11.8 C 9.16 g/m*3 11.8 C 1.6 km/h
115 25-04-2015 09:30:00 11.9 C 9.21 g/m*3 11.9 C 0 km/h
116 25-04-2015 09:35:00 11.9 C 9.21 g/m*3 11.9 C 0 km/h
117 25-04-2015 09:40:00 11.9 C 9.21 g/m*3 11.9 C 0 km/h
118 25-04-2015 09:45:00 12 C 9.38 g/m*3 12 C 0 km/h
119 25-04-2015 09:50:00 12 C 9.38 g/m*3 12 C 0 km/h
120 25-04-2015 09:55:00 12 C 9.38 g/m*3 12 C 0 km/h
121 25-04-2015 10:00:00 12.1 C 9.44 g/m*3 12.1 C 0 km/h
122 25-04-2015 10:05:00 12.1 C 9.54 g/m*3 12.1 C 0 km/h
123 25-04-2015 10:10:00 12.2 C 9.5 g/m*3 12.2 C 0 km/h
124 25-04-2015 10:15:00 12.2 C 9.6 g/m*3 12.2 C 0 km/h
125 25-04-2015 10:20:00 12.3 C 9.45 g/m*3 12.3 C 0 km/h
Sensor: Nr:Datum:Temp:Abs-Feuchte:Windchill:Wind:
Aussen-T/F 126 25-04-2015 10:25:00 12.3 C 9.34 g/m*3 12.3 C 0 km/h
127 25-04-2015 10:30:00 12.4 C 9.4 g/m*3 12.4 C 0 km/h
128 25-04-2015 10:35:00 12.6 C 9.51 g/m*3 12.6 C 0 km/h
129 25-04-2015 10:40:00 12.7 C 9.68 g/m*3 12.7 C 0 km/h
130 25-04-2015 10:45:00 12.9 C 9.81 g/m*3 12.9 C 1.6 km/h
131 25-04-2015 10:50:00 13.2 C 10.1 g/m*3 13.2 C 1.6 km/h
132 25-04-2015 10:55:00 13.2 C 9.99 g/m*3 13.2 C 1.6 km/h
133 25-04-2015 11:00:00 13.4 C 10.11 g/m*3 13.4 C 0 km/h
134 25-04-2015 11:05:00 13.6 C 10.24 g/m*3 13.6 C 0 km/h
135 25-04-2015 11:10:00 13.7 C 10.18 g/m*3 13.7 C 3.2 km/h
136 25-04-2015 11:15:00 13.8 C 10.37 g/m*3 13.8 C 1.6 km/h
137 25-04-2015 11:20:00 14.1 C 10.56 g/m*3 14.1 C 3.2 km/h
138 25-04-2015 11:25:00 14.2 C 10.5 g/m*3 14.2 C 6.4 km/h
139 25-04-2015 11:30:00 14.5 C 10.7 g/m*3 14.5 C 3.2 km/h
140 25-04-2015 11:35:00 14.8 C 11.02 g/m*3 14.8 C 4.8 km/h
141 25-04-2015 11:40:00 14.9 C 10.58 g/m*3 14.9 C 6.4 km/h
142 25-04-2015 11:45:00 15.1 C 10.84 g/m*3 15.1 C 8.1 km/h
143 25-04-2015 11:50:00 15.1 C 10.71 g/m*3 15.1 C 1.6 km/h
144 25-04-2015 11:55:00 15.1 C 10.84 g/m*3 15.1 C 3.2 km/h
145 25-04-2015 12:00:00 15.1 C 10.71 g/m*3 15.1 C 3.2 km/h
146 25-04-2015 12:05:00 15.2 C 10.77 g/m*3 15.2 C 0 km/h
147 25-04-2015 12:10:00 15.3 C 10.84 g/m*3 15.3 C 6.4 km/h
148 25-04-2015 12:15:00 15.6 C 10.64 g/m*3 15.6 C 9.7 km/h
149 25-04-2015 12:20:00 15.7 C 10.57 g/m*3 15.7 C 8.1 km/h
150 25-04-2015 12:25:00 15.8 C 10.5 g/m*3 15.8 C 16.1 km/h
Sensor: Nr:Datum:Temp:Abs-Feuchte:Windchill:Wind:
Aussen-T/F 151 25-04-2015 12:30:00 15.8 C 10.63 g/m*3 15.8 C 9.7 km/h
152 25-04-2015 12:35:00 15.8 C 10.5 g/m*3 15.8 C 12.9 km/h
153 25-04-2015 12:40:00 15.9 C 10.56 g/m*3 15.9 C 12.9 km/h
154 25-04-2015 12:45:00 16.1 C 10.55 g/m*3 16.1 C 16.1 km/h
155 25-04-2015 12:50:00 16.2 C 10.48 g/m*3 16.2 C 14.5 km/h
156 25-04-2015 12:55:00 16.2 C 10.48 g/m*3 16.2 C 12.9 km/h
157 25-04-2015 13:00:00 16.3 C 10.68 g/m*3 16.3 C 16.1 km/h
158 25-04-2015 13:05:00 16.5 C 10.67 g/m*3 16.5 C 14.5 km/h
159 25-04-2015 13:10:00 16.8 C 10.72 g/m*3 16.8 C 11.3 km/h
160 25-04-2015 13:15:00 17.1 C 10.77 g/m*3 17.1 C 19.3 km/h
161 25-04-2015 13:20:00 17.2 C 10.69 g/m*3 17.2 C 14.5 km/h
162 25-04-2015 13:25:00 17.5 C 10.88 g/m*3 17.5 C 19.3 km/h
163 25-04-2015 13:30:00 18 C 10.75 g/m*3 18 C 19.3 km/h
164 25-04-2015 13:35:00 18 C 10.6 g/m*3 18 C 17.7 km/h
165 25-04-2015 13:40:00 17.7 C 10.41 g/m*3 17.7 C 24.1 km/h
166 25-04-2015 13:45:00 17.6 C 10.35 g/m*3 17.6 C 19.3 km/h
167 25-04-2015 13:50:00 17.4 C 10.23 g/m*3 17.4 C 17.7 km/h
168 25-04-2015 13:55:00 17.4 C 10.08 g/m*3 17.4 C 12.9 km/h
169 25-04-2015 14:00:00 17.6 C 9.9 g/m*3 17.6 C 16.1 km/h
170 25-04-2015 14:05:00 17.9 C 10.08 g/m*3 17.9 C 20.9 km/h
171 25-04-2015 14:10:00 18.3 C 10.32 g/m*3 18.3 C 16.1 km/h
172 25-04-2015 14:15:00 18.4 C 10.22 g/m*3 18.4 C 17.7 km/h
173 25-04-2015 14:20:00 18.3 C 10.32 g/m*3 18.3 C 16.1 km/h
174 25-04-2015 14:25:00 18.2 C 10.1 g/m*3 18.2 C 22.5 km/h
175 25-04-2015 14:30:00 18.1 C 10.2 g/m*3 18.1 C 11.3 km/h
Sensor: Nr:Datum:Temp:Abs-Feuchte:Windchill:Wind:
Aussen-T/F 176 25-04-2015 14:35:00 18.3 C 10.32 g/m*3 18.3 C 17.7 km/h
177 25-04-2015 14:40:00 18.2 C 10.1 g/m*3 18.2 C 17.7 km/h
178 25-04-2015 14:45:00 18.1 C 10.2 g/m*3 18.1 C 16.1 km/h
179 25-04-2015 14:50:00 18 C 10.14 g/m*3 18 C 19.3 km/h
180 25-04-2015 14:55:00 17.9 C 10.23 g/m*3 17.9 C 12.9 km/h
181 25-04-2015 15:00:00 17.8 C 10.17 g/m*3 17.8 C 16.1 km/h
182 25-04-2015 15:05:00 17.7 C 9.96 g/m*3 17.7 C 12.9 km/h
183 25-04-2015 15:10:00 17.5 C 9.84 g/m*3 17.5 C 14.5 km/h
184 25-04-2015 15:15:00 17.3 C 9.87 g/m*3 17.3 C 14.5 km/h
185 25-04-2015 15:20:00 17.2 C 9.96 g/m*3 17.2 C 14.5 km/h
186 25-04-2015 15:25:00 17.4 C 10.23 g/m*3 17.4 C 11.3 km/h
187 25-04-2015 15:30:00 17.6 C 10.2 g/m*3 17.6 C 16.1 km/h
188 25-04-2015 15:35:00 17.5 C 9.99 g/m*3 17.5 C 24.1 km/h
189 25-04-2015 15:40:00 17.4 C 10.08 g/m*3 17.4 C 11.3 km/h
190 25-04-2015 15:45:00 17.3 C 10.02 g/m*3 17.3 C 14.5 km/h
191 25-04-2015 15:50:00 17.2 C 10.1 g/m*3 17.2 C 19.3 km/h
192 25-04-2015 15:55:00 17.1 C 10.19 g/m*3 17.1 C 12.9 km/h
193 25-04-2015 16:00:00 17.1 C 10.34 g/m*3 17.1 C 12.9 km/h
194 25-04-2015 16:05:00 17.1 C 10.34 g/m*3 17.1 C 17.7 km/h
195 25-04-2015 16:10:00 17.2 C 10.4 g/m*3 17.2 C 14.5 km/h
196 25-04-2015 16:15:00 17.3 C 10.61 g/m*3 17.3 C 12.9 km/h
197 25-04-2015 16:20:00 17.3 C 10.61 g/m*3 17.3 C 19.3 km/h
198 25-04-2015 16:25:00 17.5 C 10.59 g/m*3 17.5 C 17.7 km/h
199 25-04-2015 16:30:00 17.7 C 10.56 g/m*3 17.7 C 19.3 km/h
200 25-04-2015 16:35:00 17.6 C 10.5 g/m*3 17.6 C 16.1 km/h
Sensor: Nr:Datum:Temp:Abs-Feuchte:Windchill:Wind:
Aussen-T/F 201 25-04-2015 16:40:00 17.6 C 10.65 g/m*3 17.6 C 22.5 km/h
202 25-04-2015 16:45:00 17.3 C 10.46 g/m*3 17.3 C 16.1 km/h
203 25-04-2015 16:50:00 17.1 C 10.34 g/m*3 17.1 C 17.7 km/h
204 25-04-2015 16:55:00 16.9 C 10.36 g/m*3 16.9 C 9.7 km/h
205 25-04-2015 17:00:00 16.8 C 10.44 g/m*3 16.8 C 12.9 km/h
206 25-04-2015 17:05:00 16.7 C 10.37 g/m*3 16.7 C 14.5 km/h
207 25-04-2015 17:10:00 16.6 C 10.31 g/m*3 16.6 C 8.1 km/h
208 25-04-2015 17:15:00 16.6 C 10.45 g/m*3 16.6 C 12.9 km/h
209 25-04-2015 17:20:00 16.5 C 10.39 g/m*3 16.5 C 8.1 km/h
210 25-04-2015 17:25:00 16.4 C 10.75 g/m*3 16.4 C 11.3 km/h
211 25-04-2015 17:30:00 16.2 C 10.62 g/m*3 16.2 C 11.3 km/h
212 25-04-2015 17:35:00 16 C 10.63 g/m*3 16 C 8.1 km/h
213 25-04-2015 17:40:00 15.8 C 10.77 g/m*3 15.8 C 9.7 km/h
214 25-04-2015 17:45:00 15.4 C 10.77 g/m*3 15.4 C 6.4 km/h
215 25-04-2015 17:50:00 15.2 C 10.9 g/m*3 15.2 C 3.2 km/h
216 25-04-2015 17:55:00 15 C 10.9 g/m*3 15 C 3.2 km/h
217 25-04-2015 18:00:00 15 C 11.03 g/m*3 15 C 4.8 km/h
218 25-04-2015 18:05:00 15.2 C 11.03 g/m*3 15.2 C 4.8 km/h
219 25-04-2015 18:10:00 15.3 C 11.1 g/m*3 15.3 C 4.8 km/h
220 25-04-2015 18:15:00 15.4 C 11.04 g/m*3 15.4 C 6.4 km/h
221 25-04-2015 18:20:00 15.5 C 11.1 g/m*3 15.5 C 4.8 km/h
222 25-04-2015 18:25:00 15.6 C 11.17 g/m*3 15.6 C 4.8 km/h
223 25-04-2015 18:30:00 15.6 C 11.17 g/m*3 15.6 C 3.2 km/h
224 25-04-2015 18:35:00 15.6 C 11.17 g/m*3 15.6 C 6.4 km/h
225 25-04-2015 18:40:00 15.5 C 10.84 g/m*3 15.5 C 4.8 km/h
Sensor: Nr:Datum:Temp:Abs-Feuchte:Windchill:Wind:
Aussen-T/F 226 25-04-2015 18:45:00 15.4 C 10.9 g/m*3 15.4 C 6.4 km/h
227 25-04-2015 18:50:00 15.3 C 10.84 g/m*3 15.3 C 4.8 km/h
228 25-04-2015 18:55:00 15.3 C 10.97 g/m*3 15.3 C 6.4 km/h
229 25-04-2015 19:00:00 15.2 C 10.9 g/m*3 15.2 C 3.2 km/h
230 25-04-2015 19:05:00 15.2 C 11.03 g/m*3 15.2 C 4.8 km/h
231 25-04-2015 19:10:00 15.1 C 10.97 g/m*3 15.1 C 4.8 km/h
232 25-04-2015 19:15:00 14.9 C 10.96 g/m*3 14.9 C 3.2 km/h
233 25-04-2015 19:20:00 14.8 C 11.02 g/m*3 14.8 C 3.2 km/h
234 25-04-2015 19:25:00 14.7 C 10.95 g/m*3 14.7 C 9.7 km/h
235 25-04-2015 19:30:00 14.6 C 10.89 g/m*3 14.6 C 4.8 km/h
236 25-04-2015 19:35:00 14.6 C 10.89 g/m*3 14.6 C 3.2 km/h
237 25-04-2015 19:40:00 14.6 C 10.89 g/m*3 14.6 C 1.6 km/h
238 25-04-2015 19:45:00 14.7 C 10.95 g/m*3 14.7 C 1.6 km/h
239 25-04-2015 19:50:00 14.7 C 10.95 g/m*3 14.7 C 1.6 km/h
240 25-04-2015 19:55:00 14.6 C 10.89 g/m*3 14.6 C 3.2 km/h
241 25-04-2015 20:00:00 14.6 C 10.89 g/m*3 14.6 C 3.2 km/h
242 25-04-2015 20:05:00 14.4 C 10.88 g/m*3 14.4 C 3.2 km/h
243 25-04-2015 20:10:00 14.4 C 10.88 g/m*3 14.4 C 3.2 km/h
244 25-04-2015 20:15:00 14.3 C 10.81 g/m*3 14.3 C 3.2 km/h
245 25-04-2015 20:20:00 14.3 C 10.81 g/m*3 14.3 C 4.8 km/h
246 25-04-2015 20:25:00 14.2 C 10.75 g/m*3 14.2 C 4.8 km/h
247 25-04-2015 20:30:00 14 C 10.74 g/m*3 14 C 3.2 km/h
248 25-04-2015 20:35:00 13.8 C 10.6 g/m*3 13.8 C 3.2 km/h
249 25-04-2015 20:40:00 13.7 C 10.54 g/m*3 13.7 C 1.6 km/h
250 25-04-2015 20:45:00 13.6 C 10.47 g/m*3 13.6 C 3.2 km/h
Sensor: Nr:Datum:Temp:Abs-Feuchte:Windchill:Wind:
Aussen-T/F 251 25-04-2015 20:50:00 13.6 C 10.47 g/m*3 13.6 C 3.2 km/h
252 25-04-2015 20:55:00 13.4 C 10.35 g/m*3 13.4 C 1.6 km/h
253 25-04-2015 21:00:00 13.4 C 10.35 g/m*3 13.4 C 1.6 km/h
254 25-04-2015 21:05:00 13.3 C 10.28 g/m*3 13.3 C 0 km/h
255 25-04-2015 21:10:00 13.3 C 10.4 g/m*3 13.3 C 1.6 km/h
256 25-04-2015 21:15:00 13.3 C 10.4 g/m*3 13.3 C 1.6 km/h
257 25-04-2015 21:20:00 13.2 C 10.33 g/m*3 13.2 C 1.6 km/h
258 25-04-2015 21:25:00 13.1 C 10.27 g/m*3 13.1 C 1.6 km/h
259 25-04-2015 21:30:00 13.1 C 10.27 g/m*3 13.1 C 1.6 km/h
260 25-04-2015 21:35:00 12.9 C 10.14 g/m*3 12.9 C 1.6 km/h
261 25-04-2015 21:40:00 12.8 C 10.19 g/m*3 12.8 C 1.6 km/h
262 25-04-2015 21:45:00 12.8 C 10.19 g/m*3 12.8 C 3.2 km/h
263 25-04-2015 21:50:00 12.8 C 10.19 g/m*3 12.8 C 3.2 km/h
264 25-04-2015 21:55:00 12.8 C 10.19 g/m*3 12.8 C 1.6 km/h
265 25-04-2015 22:00:00 12.8 C 10.19 g/m*3 12.8 C 1.6 km/h
266 25-04-2015 22:05:00 12.8 C 10.19 g/m*3 12.8 C 1.6 km/h
267 25-04-2015 22:10:00 12.8 C 10.08 g/m*3 12.8 C 1.6 km/h
268 25-04-2015 22:15:00 12.7 C 10.13 g/m*3 12.7 C 0 km/h
269 25-04-2015 22:20:00 12.6 C 10.07 g/m*3 12.6 C 1.6 km/h
270 25-04-2015 22:25:00 12.6 C 10.07 g/m*3 12.6 C 0 km/h
271 25-04-2015 22:30:00 12.6 C 10.07 g/m*3 12.6 C 1.6 km/h
272 25-04-2015 22:35:00 12.5 C 10 g/m*3 12.5 C 0 km/h
273 25-04-2015 22:40:00 12.4 C 10.05 g/m*3 12.4 C 3.2 km/h
274 25-04-2015 22:45:00 12.4 C 10.05 g/m*3 12.4 C 0 km/h
275 25-04-2015 22:50:00 12.3 C 9.99 g/m*3 12.3 C 0 km/h
Sensor: Nr:Datum:Temp:Abs-Feuchte:Windchill:Wind:
Aussen-T/F 276 25-04-2015 22:55:00 12.3 C 9.99 g/m*3 12.3 C 0 km/h
277 25-04-2015 23:00:00 12.2 C 9.93 g/m*3 12.2 C 0 km/h
278 25-04-2015 23:05:00 12.2 C 10.04 g/m*3 12.2 C 0 km/h
279 25-04-2015 23:10:00 12.2 C 10.04 g/m*3 12.2 C 0 km/h
280 25-04-2015 23:15:00 12.2 C 10.04 g/m*3 12.2 C 0 km/h
281 25-04-2015 23:20:00 12 C 9.8 g/m*3 12 C 0 km/h
282 25-04-2015 23:25:00 11.9 C 9.74 g/m*3 11.9 C 0 km/h
283 25-04-2015 23:30:00 11.8 C 9.79 g/m*3 11.8 C 0 km/h
284 25-04-2015 23:35:00 11.7 C 9.73 g/m*3 11.7 C 0 km/h
285 25-04-2015 23:40:00 11.6 C 9.67 g/m*3 11.6 C 0 km/h
286 25-04-2015 23:45:00 11.6 C 9.67 g/m*3 11.6 C 0 km/h
287 25-04-2015 23:50:00 11.6 C 9.77 g/m*3 11.6 C 0 km/h
288 25-04-2015 23:55:00 11.7 C 9.73 g/m*3 11.7 C 0 km/h

Legende:
   Min
   Max


Maximal/Minimal-Werte vom 25.04.2015 - 25.04.2015

Sensor Min Max Avg
Temp
(Aussen-T/F)
9.1 °C
25-04-2015  02:40:00
18.4 °C
25-04-2015  14:15:00
12.95 °C
Abs-Feuchte
(Aussen-T/F)
6.72 g/m*3
25-04-2015  00:10:00
11.17 g/m*3
25-04-2015  18:25:00
9.21 g/m*3
Windchill
(Aussen-T/F)
9.1 C
25-04-2015  02:40:00
18.4 C
25-04-2015  14:15:00
12.91 C

Die Daten stammen von einer Davis Vantage Pro 2 Wetter-Station und werden unter Linux mit der Software wview2wettercgi und aufbereitet. Alle Angaben erfolgen ohne Gewähr für ihre Vollständigkeit oder Richtigkeit.
Kontakt: Rainer Krienke krienke@uni-koblenz.de . Meine Webseiten an der Uni Koblenz oder privat.
Version: $Revision: 0.78 $